Time;durP1;ratioP1;P1;durP2;ratioP2;P2;SDS_P1;SDS_P2;PMS_P1;PMS_P2;Temp;Humidity;BMP_temperature;BMP_pressure;BME280_temperature;BME280_humidity;BME280_pressure;Samples;Min_cycle;Max_cycle;Signal;HPM_P1;HPM_P2
2021/07/15 00:02:04;;;;;;;11.40;8.88;;;;;;;21.38;69.54;100237.09;1805262;79;20925;-75
2021/07/15 00:04:32;;;;;;;15.98;9.60;;;;;;;21.36;69.69;100231.09;1788187;78;21004;-74
2021/07/15 00:06:59;;;;;;;18.02;10.72;;;;;;;21.37;69.62;100234.60;1793073;78;22652;-74
2021/07/15 00:09:25;;;;;;;19.77;11.20;;;;;;;21.40;69.37;100224.80;1795531;79;21440;-74
2021/07/15 00:11:52;;;;;;;17.57;10.88;;;;;;;21.42;69.10;100221.39;1786504;78;21411;-74
2021/07/15 00:14:21;;;;;;;19.15;11.45;;;;;;;21.47;68.83;100223.00;1789994;79;20996;-74
2021/07/15 00:16:53;;;;;;;13.53;11.30;;;;;;;21.49;68.63;100219.59;1805333;79;20992;-74
2021/07/15 00:19:23;;;;;;;16.05;10.65;;;;;;;21.53;68.56;100224.91;1807566;79;20925;-74
2021/07/15 00:21:51;;;;;;;12.60;10.72;;;;;;;21.55;68.73;100219.34;1788145;79;21444;-74
2021/07/15 00:24:18;;;;;;;15.93;11.95;;;;;;;21.54;68.92;100220.36;1800873;79;20960;-74
2021/07/15 00:26:48;;;;;;;14.60;11.33;;;;;;;21.51;68.95;100222.91;1788646;79;20976;-74
2021/07/15 00:29:16;;;;;;;12.65;11.35;;;;;;;21.48;69.03;100224.66;1807725;79;20985;-74
2021/07/15 00:31:44;;;;;;;20.57;12.47;;;;;;;21.46;68.99;100219.17;1797753;79;21467;-74
2021/07/15 00:34:11;;;;;;;12.63;11.08;;;;;;;21.43;68.77;100217.71;1791412;79;20942;-74
2021/07/15 00:36:39;;;;;;;14.65;10.60;;;;;;;21.43;68.97;100217.71;1805359;79;21005;-74
2021/07/15 00:39:07;;;;;;;12.73;11.03;;;;;;;21.40;69.21;100221.59;1807450;79;21012;-74
2021/07/15 00:41:34;;;;;;;19.07;12.75;;;;;;;21.36;69.26;100219.52;1790243;79;20944;-74
2021/07/15 00:44:01;;;;;;;18.17;11.75;;;;;;;21.35;68.95;100215.17;1799270;79;21824;-74
2021/07/15 00:46:29;;;;;;;17.32;11.93;;;;;;;21.35;68.87;100223.23;1777999;79;20976;-74
2021/07/15 00:48:56;;;;;;;13.78;12.00;;;;;;;21.31;68.84;100226.80;1807549;79;20969;-73
2021/07/15 00:51:22;;;;;;;13.83;11.85;;;;;;;21.31;68.95;100229.48;1806004;79;20926;-73
2021/07/15 00:53:48;;;;;;;12.13;10.63;;;;;;;21.33;68.95;100231.48;1796169;79;20984;-73
2021/07/15 00:56:15;;;;;;;12.63;11.18;;;;;;;21.30;69.18;100223.80;1813140;79;22135;-75
2021/07/15 00:58:43;;;;;;;20.35;11.93;;;;;;;21.27;69.37;100220.69;1807124;79;21001;-74
2021/07/15 01:01:09;;;;;;;14.38;11.35;;;;;;;21.25;69.60;100230.25;1807601;79;20933;-73
2021/07/15 01:03:37;;;;;;;17.10;11.60;;;;;;;21.22;69.68;100226.59;1798277;79;21025;-73
2021/07/15 01:06:05;;;;;;;19.15;13.50;;;;;;;21.21;69.83;100228.13;1806765;79;20961;-73
2021/07/15 01:08:32;;;;;;;13.75;11.57;;;;;;;21.22;69.73;100225.77;1805404;79;22198;-73
2021/07/15 01:11:23;;;;;;;15.63;11.93;;;;;;;21.23;69.61;100223.39;1795161;79;20940;-74
2021/07/15 01:14:02;;;;;;;17.12;12.05;;;;;;;21.25;69.73;100226.73;1788225;78;20965;-73
2021/07/15 01:16:35;;;;;;;20.17;12.90;;;;;;;21.20;69.73;100225.13;1805325;79;21404;-73
2021/07/15 01:19:34;;;;;;;13.80;12.37;;;;;;;21.14;69.70;100224.90;1805634;79;21444;-73
2021/07/15 01:22:14;;;;;;;17.25;12.40;;;;;;;21.14;69.57;100226.24;1806182;79;21828;-73
2021/07/15 01:25:10;;;;;;;16.62;12.82;;;;;;;21.14;69.48;100222.22;1806738;79;21424;-74
2021/07/15 01:28:05;;;;;;;16.40;11.88;;;;;;;21.13;69.54;100221.90;1796719;79;21001;-74
2021/07/15 01:30:52;;;;;;;18.80;12.50;;;;;;;21.08;69.69;100221.64;1718576;79;20980;-74
2021/07/15 01:33:22;;;;;;;18.40;12.18;;;;;;;21.03;69.76;100221.38;1790141;79;20972;-74
2021/07/15 01:36:04;;;;;;;18.17;13.08;;;;;;;21.00;69.92;100225.80;1790470;79;21810;-73
2021/07/15 01:38:48;;;;;;;18.92;13.48;;;;;;;20.99;70.03;100222.80;1795835;79;20941;-75
2021/07/15 01:41:21;;;;;;;15.72;12.28;;;;;;;21.00;70.05;100219.08;1808091;79;21048;-74
2021/07/15 01:43:54;;;;;;;;;;;;;;;20.99;70.01;100220.63;1799216;79;20997;-73
2021/07/15 01:46:20;;;;;;;17.70;13.45;;;;;;;20.98;70.11;100217.63;1784130;79;20137;-74
2021/07/15 01:48:47;;;;;;;17.82;12.88;;;;;;;20.95;70.21;100213.98;1792746;79;22721;-73
2021/07/15 01:51:13;;;;;;;24.52;13.85;;;;;;;20.94;70.23;100220.36;1804860;79;20965;-74
2021/07/15 01:53:41;;;;;;;17.42;12.80;;;;;;;20.93;70.29;100222.21;1787479;79;20921;-74
2021/07/15 01:56:08;;;;;;;18.00;13.28;;;;;;;20.95;70.30;100219.36;1801750;79;21028;-74
2021/07/15 01:58:36;;;;;;;16.17;13.20;;;;;;;20.97;70.27;100226.19;1788616;79;21539;-74
2021/07/15 02:01:05;;;;;;;15.90;12.23;;;;;;;20.97;70.20;100227.53;1793097;79;22191;-73
2021/07/15 02:03:31;;;;;;;14.87;12.25;;;;;;;20.96;70.27;100221.84;1795748;79;20933;-76
2021/07/15 02:05:58;;;;;;;22.42;14.30;;;;;;;20.96;70.26;100231.25;1776540;79;21103;-74
2021/07/15 02:08:25;;;;;;;19.85;13.25;;;;;;;20.95;70.31;100221.53;1789320;79;21047;-74
2021/07/15 02:10:53;;;;;;;19.42;13.55;;;;;;;20.95;70.28;100221.53;1782340;79;21384;-74
2021/07/15 02:13:21;;;;;;;15.53;13.05;;;;;;;20.95;70.22;100217.50;1800917;79;20928;-74
2021/07/15 02:15:50;;;;;;;17.48;13.08;;;;;;;20.95;70.23;100223.39;1791867;79;20924;-74
2021/07/15 02:18:20;;;;;;;20.97;15.03;;;;;;;20.93;70.38;100214.16;1786301;79;21498;-74
2021/07/15 02:20:53;;;;;;;16.42;13.70;;;;;;;20.92;70.39;100220.55;1804073;79;21000;-74
2021/07/15 02:23:21;;;;;;;17.30;12.97;;;;;;;20.91;70.41;100217.55;1806528;79;20934;-74
2021/07/15 02:25:50;;;;;;;17.73;12.70;;;;;;;20.91;70.58;100224.78;1807488;78;21801;-74
2021/07/15 02:28:20;;;;;;;15.60;12.63;;;;;;;20.90;70.81;100226.63;1785194;79;21522;-74
2021/07/15 02:30:50;;;;;;;18.25;12.95;;;;;;;20.87;70.99;100223.00;1800610;79;21027;-74
2021/07/15 02:33:17;;;;;;;22.73;13.70;;;;;;;20.86;71.00;100225.38;1799647;79;21028;-74
2021/07/15 02:35:50;;;;;;;19.62;13.70;;;;;;;20.85;70.98;100227.73;1804873;79;20981;-74
2021/07/15 02:38:22;;;;;;;18.62;12.78;;;;;;;20.84;71.01;100230.08;1807736;79;22663;-76
2021/07/15 02:40:51;;;;;;;19.27;12.65;;;;;;;20.82;71.20;100232.12;1782279;79;20988;-74
2021/07/15 02:43:19;;;;;;;17.75;14.03;;;;;;;20.78;71.38;100230.34;1797674;79;20960;-74
2021/07/15 02:45:47;;;;;;;22.13;13.65;;;;;;;20.78;71.41;100233.55;1806245;79;20996;-74
2021/07/15 02:48:17;;;;;;;19.67;13.18;;;;;;;20.75;71.53;100233.91;1784270;79;20947;-74
2021/07/15 02:50:43;;;;;;;18.45;13.90;;;;;;;20.74;71.64;100234.93;1799020;79;21797;-74
2021/07/15 02:53:10;;;;;;;18.55;12.43;;;;;;;20.75;71.69;100236.59;1805482;79;21064;-74
2021/07/15 02:55:41;;;;;;;18.80;12.60;;;;;;;20.78;71.62;100238.91;1785971;79;21008;-74
2021/07/15 02:58:21;;;;;;;19.07;12.88;;;;;;;20.78;71.66;100238.41;1807628;79;21013;-74
2021/07/15 03:00:57;;;;;;;16.77;12.60;;;;;;;20.81;71.63;100246.58;1801480;79;21039;-74
2021/07/15 03:03:59;;;;;;;16.52;12.30;;;;;;;20.82;71.62;100247.72;1796401;79;21771;-75
2021/07/15 03:06:34;;;;;;;17.62;11.68;;;;;;;20.83;71.59;100253.41;1801279;79;21467;-77
2021/07/15 03:09:09;;;;;;;16.93;12.05;;;;;;;20.85;71.58;100253.24;1806617;79;20937;-74
2021/07/15 03:12:00;;;;;;;15.13;10.90;;;;;;;20.85;71.64;100251.90;1780684;78;27096;-74
2021/07/15 03:14:24;;;;;;;14.65;10.98;;;;;;;20.84;71.71;100247.05;1805371;79;20941;-74
2021/07/15 03:16:51;;;;;;;16.87;11.08;;;;;;;20.87;71.74;100248.50;1792926;79;21814;-74
2021/07/15 03:19:18;;;;;;;16.73;10.98;;;;;;;20.92;71.77;100243.89;1799679;79;20955;-75
2021/07/15 03:21:44;;;;;;;16.12;10.20;;;;;;;20.93;71.81;100241.00;1813990;79;21482;-74
2021/07/15 03:24:13;;;;;;;14.20;10.38;;;;;;;20.95;71.73;100243.52;1807560;79;20953;-74
2021/07/15 03:26:40;;;;;;;21.20;11.15;;;;;;;20.96;71.66;100248.70;1783043;79;21040;-74
2021/07/15 03:29:08;;;;;;;19.20;10.48;;;;;;;20.98;71.60;100242.62;1805403;79;21868;-74
2021/07/15 03:31:35;;;;;;;16.12;10.88;;;;;;;21.00;71.55;100255.33;1796647;78;20921;-74
2021/07/15 03:34:03;;;;;;;15.63;10.48;;;;;;;21.02;71.47;100251.94;1793389;78;20945;-74
2021/07/15 03:36:32;;;;;;;14.28;9.68;;;;;;;21.05;71.44;100246.72;1803031;79;20973;-74
2021/07/15 03:38:58;;;;;;;12.37;9.78;;;;;;;21.06;71.39;100251.06;1807644;79;20965;-74
2021/07/15 03:41:25;;;;;;;13.50;9.48;;;;;;;21.09;71.38;100248.80;1807659;79;22181;-74
2021/07/15 03:43:51;;;;;;;14.40;10.03;;;;;;;21.13;71.37;100257.30;1803591;79;20917;-74
2021/07/15 03:46:19;;;;;;;19.15;9.78;;;;;;;21.17;71.37;100259.94;1805578;79;20965;-74
2021/07/15 03:48:47;;;;;;;15.83;10.23;;;;;;;21.22;71.30;100255.31;1807533;79;20980;-75
2021/07/15 03:51:15;;;;;;;12.55;9.48;;;;;;;21.28;71.19;100255.41;1807854;79;21597;-76
2021/07/15 03:53:43;;;;;;;10.40;9.35;;;;;;;21.32;71.18;100251.80;1805477;79;22732;-74
2021/07/15 03:56:13;;;;;;;18.95;9.70;;;;;;;21.34;70.99;100247.09;1786575;79;20980;-74
2021/07/15 03:58:44;;;;;;;14.60;9.15;;;;;;;21.37;70.86;100256.09;1776672;79;20984;-74
2021/07/15 04:01:12;;;;;;;14.18;9.10;;;;;;;21.41;70.60;100258.70;1791963;79;20953;-73
2021/07/15 04:03:38;;;;;;;13.62;9.48;;;;;;;21.45;70.41;100257.30;1799147;79;21040;-73
2021/07/15 04:06:04;;;;;;;16.60;10.18;;;;;;;21.51;70.20;100253.81;1778871;79;21655;-74
2021/07/15 04:08:32;;;;;;;17.17;9.53;;;;;;;21.57;69.90;100246.33;1785872;79;20972;-73
2021/07/15 04:11:02;;;;;;;14.53;9.43;;;;;;;21.63;69.70;100250.92;1796674;79;20981;-74
2021/07/15 04:13:28;;;;;;;15.03;9.23;;;;;;;21.71;69.67;100248.09;1795225;78;20992;-74
2021/07/15 04:16:08;;;;;;;14.15;9.18;;;;;;;21.79;69.38;100252.45;1798139;78;20977;-74
2021/07/15 04:18:38;;;;;;;13.90;8.78;;;;;;;21.84;69.03;100250.02;1794488;79;21550;-74
2021/07/15 04:21:06;;;;;;;13.15;8.23;;;;;;;21.91;69.03;100250.06;1811796;78;21462;-75
2021/07/15 04:23:35;;;;;;;12.40;7.72;;;;;;;21.98;68.56;100244.19;1799458;79;21407;-74
2021/07/15 04:26:01;;;;;;;11.68;7.83;;;;;;;22.05;68.14;100246.91;1786939;79;20933;-74
2021/07/15 04:28:28;;;;;;;14.75;7.95;;;;;;;22.13;67.66;100245.44;1793249;79;21037;-74
2021/07/15 04:31:17;;;;;;;9.05;7.53;;;;;;;22.21;67.31;100250.66;1776667;79;21838;-76
2021/07/15 04:33:45;;;;;;;12.65;7.42;;;;;;;22.27;67.14;100251.17;1801868;79;20997;-74
2021/07/15 04:36:11;;;;;;;12.70;7.70;;;;;;;22.36;66.74;100247.28;1807759;79;21404;-78
2021/07/15 04:38:37;;;;;;;11.57;7.47;;;;;;;22.44;66.57;100240.89;1805266;79;21456;-74
2021/07/15 04:41:04;;;;;;;11.83;7.12;;;;;;;22.51;66.41;100243.09;1796561;79;21341;-78
2021/07/15 04:43:30;;;;;;;11.00;7.50;;;;;;;22.59;66.18;100245.61;1786846;79;22105;-75
2021/07/15 04:45:57;;;;;;;11.55;7.03;;;;;;;22.68;66.19;100247.58;1801342;79;20973;-75
2021/07/15 04:48:23;;;;;;;11.00;6.90;;;;;;;22.75;65.84;100248.42;1796871;79;21340;-73
2021/07/15 04:50:51;;;;;;;9.63;6.95;;;;;;;22.87;65.57;100250.02;1799542;79;20950;-80
2021/07/15 04:53:21;;;;;;;13.15;6.65;;;;;;;22.97;64.98;100245.92;1783231;79;21023;-77
2021/07/15 04:55:48;;;;;;;19.27;6.97;;;;;;;23.08;65.02;100234.53;1789176;78;21811;-78
2021/07/15 04:58:14;;;;;;;10.53;6.40;;;;;;;23.19;64.12;100240.34;1800321;79;22357;-77
2021/07/15 05:00:41;;;;;;;14.80;6.62;;;;;;;23.29;63.68;100234.84;1811206;79;21067;-78
2021/07/15 05:03:29;;;;;;;9.98;6.60;;;;;;;23.38;63.17;100234.94;1783944;79;21036;-77
2021/07/15 05:05:56;;;;;;;11.65;6.65;;;;;;;23.49;63.37;100238.03;1807755;79;21032;-77
2021/07/15 05:08:25;;;;;;;11.25;5.97;;;;;;;23.60;63.60;100243.64;1807655;79;20925;-77
2021/07/15 05:10:54;;;;;;;10.85;5.58;;;;;;;23.67;63.02;100236.38;1808213;79;20928;-77
2021/07/15 05:13:22;;;;;;;15.20;5.97;;;;;;;23.76;61.67;100239.69;1787407;79;20929;-77
2021/07/15 05:15:50;;;;;;;8.33;5.25;;;;;;;23.86;61.59;100241.94;1807710;79;21495;-76
2021/07/15 05:18:17;;;;;;;11.25;5.22;;;;;;;23.92;60.21;100237.03;1794375;79;21004;-75
2021/07/15 05:20:44;;;;;;;11.60;5.20;;;;;;;24.01;58.90;100237.63;1777303;79;22649;-77
2021/07/15 05:23:11;;;;;;;7.65;4.65;;;;;;;24.10;58.87;100242.58;1784156;78;20980;-76
2021/07/15 05:25:40;;;;;;;12.18;5.35;;;;;;;24.20;58.08;100243.47;1777280;79;21032;-77
2021/07/15 05:28:06;;;;;;;11.68;4.80;;;;;;;24.28;57.71;100237.31;1808663;78;21024;-76
2021/07/15 05:30:34;;;;;;;12.82;4.70;;;;;;;24.37;56.65;100237.10;1807875;79;21322;-77
2021/07/15 05:33:01;;;;;;;10.70;4.75;;;;;;;24.46;56.47;100233.94;1800895;79;22262;-77
2021/07/15 05:35:27;;;;;;;13.43;4.15;;;;;;;24.55;55.79;100236.70;1789439;78;21044;-78
2021/07/15 05:37:54;;;;;;;8.95;4.50;;;;;;;24.63;54.73;100231.56;1820829;78;20996;-77
2021/07/15 05:40:20;;;;;;;15.20;4.58;;;;;;;24.74;54.11;100239.50;1821346;78;20945;-77
2021/07/15 05:42:47;;;;;;;9.60;4.15;;;;;;;24.81;53.96;100238.41;1820920;78;21495;-75
2021/07/15 05:45:14;;;;;;;8.18;4.30;;;;;;;24.89;53.10;100235.95;1811676;77;21901;-76
2021/07/15 05:47:40;;;;;;;12.28;4.58;;;;;;;24.96;52.29;100234.03;1794050;78;21065;-73
2021/07/15 05:50:07;;;;;;;8.95;4.40;;;;;;;25.04;51.86;100228.39;1801760;77;21035;-78
2021/07/15 05:52:35;;;;;;;12.88;4.55;;;;;;;25.12;52.51;100225.95;1788612;78;21031;-80
2021/07/15 05:55:02;;;;;;;11.30;4.35;;;;;;;25.22;52.63;100230.86;1815394;77;21054;-76
2021/07/15 05:57:32;;;;;;;6.67;4.10;;;;;;;25.30;52.61;100226.53;1810983;77;22121;-75
2021/07/15 05:59:57;;;;;;;11.25;4.72;;;;;;;25.37;52.67;100230.80;1801525;77;21048;-76
2021/07/15 06:02:23;;;;;;;9.80;5.08;;;;;;;25.44;52.59;100233.98;1787372;80;21055;-77
2021/07/15 06:04:50;;;;;;;8.30;4.72;;;;;;;25.50;52.76;100223.12;1788070;77;20952;-80
2021/07/15 06:07:17;;;;;;;11.78;4.90;;;;;;;25.58;52.38;100225.53;1803099;77;21466;-78
2021/07/15 06:09:43;;;;;;;14.28;4.95;;;;;;;25.63;51.77;100210.80;1806672;78;21692;-77
2021/07/15 06:12:10;;;;;;;10.10;5.12;;;;;;;25.71;51.53;100212.42;1816836;77;20989;-78
2021/07/15 06:14:37;;;;;;;9.58;5.00;;;;;;;25.80;51.61;100218.36;1798829;77;21476;-80
2021/07/15 06:17:05;;;;;;;9.85;5.67;;;;;;;25.87;50.70;100221.83;1804523;77;21023;-82
2021/07/15 06:19:32;;;;;;;11.90;5.50;;;;;;;25.96;50.63;100226.72;1810656;78;20996;-76
2021/07/15 06:21:59;;;;;;;12.33;5.58;;;;;;;26.05;50.37;100225.86;1812885;77;21776;-80
2021/07/15 06:24:26;;;;;;;9.65;5.47;;;;;;;26.14;50.64;100228.55;1812344;77;21521;-80
2021/07/15 06:26:53;;;;;;;10.23;5.00;;;;;;;26.23;50.25;100226.37;1816943;77;21044;-81
2021/07/15 06:29:19;;;;;;;9.30;5.45;;;;;;;26.33;50.30;100225.83;1820005;78;21023;-79
2021/07/15 06:31:46;;;;;;;15.80;5.20;;;;;;;26.43;50.94;100221.55;1819664;77;21034;-80
2021/07/15 06:34:12;;;;;;;11.00;5.40;;;;;;;26.54;50.26;100214.55;1808289;77;21783;-78
2021/07/15 06:36:39;;;;;;;11.60;5.42;;;;;;;26.63;50.27;100211.78;1819759;78;21485;-83
2021/07/15 06:39:06;;;;;;;11.15;4.90;;;;;;;26.76;49.60;100214.31;1773179;77;21051;-77
2021/07/15 06:41:32;;;;;;;14.28;5.05;;;;;;;26.86;48.84;100209.68;1819819;78;20940;-77
2021/07/15 06:43:59;;;;;;;10.55;5.30;;;;;;;26.95;48.38;100211.53;1820001;78;20988;-76
2021/07/15 06:46:27;;;;;;;11.12;5.62;;;;;;;27.04;48.55;100200.14;1803110;77;22224;-76
2021/07/15 06:48:54;;;;;;;9.63;5.10;;;;;;;27.14;48.97;100197.38;1798506;77;20925;-77
2021/07/15 06:51:21;;;;;;;13.98;5.53;;;;;;;27.22;49.67;100201.11;1806539;78;20932;-77
2021/07/15 06:53:49;;;;;;;12.30;5.42;;;;;;;27.30;49.85;100200.20;1820995;78;21031;-81
2021/07/15 06:56:16;;;;;;;11.83;4.95;;;;;;;27.41;50.34;100201.28;1797204;78;21023;-82
2021/07/15 06:58:43;;;;;;;14.73;5.37;;;;;;;27.54;50.68;100201.56;1820981;78;21796;-81
2021/07/15 07:01:09;;;;;;;9.13;5.50;;;;;;;27.64;51.01;100196.36;1810042;78;21435;-81
2021/07/15 07:03:36;;;;;;;7.92;4.47;;;;;;;27.76;51.33;100196.37;1835098;77;21099;-81
2021/07/15 07:06:03;;;;;;;6.47;4.30;;;;;;;27.86;50.47;100201.48;1836013;77;20960;-81
2021/07/15 07:08:29;;;;;;;11.48;4.25;;;;;;;27.94;48.93;100194.86;1852741;77;20962;-81
2021/07/15 07:10:56;;;;;;;12.85;4.30;;;;;;;27.99;48.22;100198.20;1811030;77;21802;-81
2021/07/15 07:13:23;;;;;;;8.60;3.75;;;;;;;28.07;46.72;100203.25;1794847;77;20961;-80
2021/07/15 07:15:51;;;;;;;8.70;4.03;;;;;;;28.15;45.79;100202.87;1834192;77;21510;-81
2021/07/15 07:18:17;;;;;;;7.95;3.52;;;;;;;28.24;46.55;100201.42;1805080;78;21023;-81
2021/07/15 07:20:44;;;;;;;10.50;3.62;;;;;;;28.33;45.29;100201.91;1817949;77;20980;-81
2021/07/15 07:23:13;;;;;;;9.80;3.20;;;;;;;28.42;43.62;100197.20;1735767;80;22191;-82
2021/07/15 07:25:41;;;;;;;6.30;3.50;;;;;;;28.51;42.50;100199.81;1788472;80;21019;-82
2021/07/15 07:28:08;;;;;;;10.95;3.30;;;;;;;28.60;43.21;100198.88;1789253;78;20931;-81
2021/07/15 07:30:35;;;;;;;9.80;2.90;;;;;;;28.74;43.08;100195.31;1786325;79;21457;-81
2021/07/15 07:33:04;;;;;;;8.08;2.58;;;;;;;28.85;42.04;100194.95;1790959;78;21019;-81
2021/07/15 07:35:31;;;;;;;8.65;2.65;;;;;;;28.90;39.39;100193.72;1819536;78;22314;-81
2021/07/15 07:37:58;;;;;;;6.42;2.90;;;;;;;28.95;40.50;100190.56;1820527;78;20976;-82
2021/07/15 07:40:25;;;;;;;6.58;2.58;;;;;;;29.03;40.91;100189.30;1820555;78;20941;-82
2021/07/15 07:42:51;;;;;;;8.60;2.58;;;;;;;29.12;41.15;100189.17;1820700;78;21379;-83
2021/07/15 07:45:18;;;;;;;4.92;2.60;;;;;;;29.20;39.24;100191.48;1808353;77;20988;-80
2021/07/15 07:47:45;;;;;;;8.05;2.60;;;;;;;29.27;38.68;100189.95;1817711;78;22235;-81
2021/07/15 07:50:13;;;;;;;5.12;2.60;;;;;;;29.34;38.48;100191.44;1820876;77;20932;-82
2021/07/15 07:52:41;;;;;;;7.95;2.72;;;;;;;29.42;38.66;100189.34;1810952;77;20949;-77
2021/07/15 07:55:09;;;;;;;3.22;2.58;;;;;;;29.47;38.69;100184.81;1800621;78;20991;-77
2021/07/15 07:57:36;;;;;;;9.83;2.30;;;;;;;29.53;38.66;100189.80;1798273;77;21000;-77
2021/07/15 08:00:14;;;;;;;3.87;1.98;;;;;;;29.54;36.04;100189.58;1808916;77;21823;-77
2021/07/15 08:02:42;;;;;;;8.18;2.40;;;;;;;29.54;36.04;100189.58;1792742;77;20948;-78
2021/07/15 08:05:10;;;;;;;4.53;2.10;;;;;;;29.75;35.90;100190.67;1812694;78;21015;-79
2021/07/15 08:07:38;;;;;;;4.12;1.70;;;;;;;29.84;34.78;100187.80;1803602;77;21455;-79
2021/07/15 08:10:08;;;;;;;2.80;1.70;;;;;;;29.84;34.78;100187.80;1819499;78;21011;-81
2021/07/15 08:12:35;;;;;;;6.85;2.05;;;;;;;29.93;33.33;100186.81;1816120;77;21435;-80
2021/07/15 08:15:02;;;;;;;5.67;1.98;;;;;;;30.03;33.98;100189.66;1802766;77;21459;-77
2021/07/15 08:17:28;;;;;;;3.00;1.92;;;;;;;30.09;33.89;100182.38;1831242;77;20953;-78
2021/07/15 08:19:57;;;;;;;3.62;1.98;;;;;;;30.16;34.91;100181.66;1820769;78;21425;-78
2021/07/15 08:22:25;;;;;;;8.58;2.08;;;;;;;30.26;33.96;100183.67;1813922;77;20823;-79
2021/07/15 08:24:52;;;;;;;5.08;1.95;;;;;;;30.30;34.35;100176.08;1846465;77;21836;-79
2021/07/15 08:27:21;;;;;;;7.42;2.17;;;;;;;30.40;34.92;100186.25;1824609;77;20986;-80
2021/07/15 08:29:48;;;;;;;4.53;2.20;;;;;;;30.46;33.51;100181.97;1821455;78;21020;-80
2021/07/15 08:32:18;;;;;;;6.37;2.33;;;;;;;30.50;34.77;100183.66;1820293;78;21001;-80
2021/07/15 08:34:46;;;;;;;8.05;2.05;;;;;;;30.61;36.27;100182.67;1815436;79;21018;-81
2021/07/15 08:37:15;;;;;;;6.25;1.87;;;;;;;30.72;32.80;100182.25;1765578;79;21823;-81
2021/07/15 08:39:54;;;;;;;7.25;1.90;;;;;;;30.78;33.32;100174.38;1788771;80;21039;-80
2021/07/15 08:42:23;;;;;;;9.80;2.30;;;;;;;30.80;32.26;100173.60;1811553;77;20953;-79
2021/07/15 08:45:08;;;;;;;5.30;2.00;;;;;;;30.81;34.13;100173.88;1821756;78;20961;-82
2021/07/15 08:47:40;;;;;;;9.15;2.58;;;;;;;30.85;33.86;100177.72;1821636;78;21007;-80
2021/07/15 08:50:11;;;;;;;9.60;3.35;;;;;;;30.93;33.13;100171.79;1822309;77;21876;-79
2021/07/15 08:52:42;;;;;;;15.25;3.87;;;;;;;30.98;32.14;100174.57;1831225;77;21449;-79
2021/07/15 08:57:39;;;;;;;9.93;3.30;;;;;;;31.08;31.82;100175.19;1806840;77;21975;-81
2021/07/15 09:00:12;;;;;;;10.28;2.65;;;;;;;31.16;31.27;100162.94;1813675;77;21039;-80
2021/07/15 09:02:46;;;;;;;6.22;2.20;;;;;;;31.27;30.76;100166.89;1816900;78;21798;-78
2021/07/15 09:05:38;;;;;;;12.15;4.20;;;;;;;31.33;30.57;100174.00;1812069;78;21008;-78
2021/07/15 09:09:03;;;;;;;13.90;4.30;;;;;;;31.33;30.42;100168.55;1793680;77;21024;-77
2021/07/15 09:11:52;;;;;;;7.55;2.17;;;;;;;31.42;31.81;100163.96;1849350;77;20968;-80
2021/07/15 09:14:24;;;;;;;7.22;2.50;;;;;;;31.48;31.39;100154.73;1775068;80;20998;-82
2021/07/15 09:16:57;;;;;;;13.80;2.95;;;;;;;31.56;30.91;100160.51;1820307;77;21818;-82
2021/07/15 09:19:28;;;;;;;8.20;3.22;;;;;;;31.55;31.87;100166.20;1789079;80;21526;-82
2021/07/15 09:22:39;;;;;;;15.48;4.70;;;;;;;31.59;31.04;100165.97;1789635;80;21031;-82
2021/07/15 09:25:13;;;;;;;19.60;3.52;;;;;;;31.61;30.63;100169.25;1781073;78;20972;-81
2021/07/15 09:27:49;;;;;;;6.45;2.20;;;;;;;31.66;32.05;100165.73;1821331;78;20940;-82
2021/07/15 09:30:27;;;;;;;4.95;2.20;;;;;;;31.77;31.75;100160.08;1820813;78;21822;-81
2021/07/15 09:33:08;;;;;;;4.80;2.00;;;;;;;31.85;31.93;100158.20;1821113;78;21443;-81
2021/07/15 09:35:46;;;;;;;4.87;2.30;;;;;;;31.98;31.44;100156.88;1819325;78;20956;-80
2021/07/15 09:38:24;;;;;;;13.05;2.80;;;;;;;32.06;31.35;100161.00;1820398;78;21015;-82
2021/07/15 09:41:02;;;;;;;12.37;2.75;;;;;;;32.04;31.19;100159.06;1820850;78;20987;-82
2021/07/15 09:43:37;;;;;;;8.78;3.30;;;;;;;32.07;30.83;100158.55;1819116;77;21809;-82
2021/07/15 09:46:21;;;;;;;8.83;2.95;;;;;;;32.14;32.09;100167.31;1819645;78;20980;-82
2021/07/15 09:49:12;;;;;;;6.12;2.80;;;;;;;32.24;31.20;100164.61;1785484;78;20900;-81
2021/07/15 09:51:48;;;;;;;14.45;3.02;;;;;;;32.19;30.60;100164.03;1819276;78;20944;-84
2021/07/15 09:54:23;;;;;;;9.45;2.83;;;;;;;32.22;30.50;100165.94;1820599;77;21023;-84
2021/07/15 09:57:00;;;;;;;14.13;3.12;;;;;;;32.14;30.83;100153.11;1789221;78;20973;-82
2021/07/15 10:00:02;;;;;;;10.35;2.95;;;;;;;32.17;33.03;100153.92;1821154;78;20947;-83
2021/07/15 10:02:43;;;;;;;14.20;3.27;;;;;;;32.28;33.34;100151.21;1823273;77;20945;-84
2021/07/15 10:05:17;;;;;;;7.92;2.95;;;;;;;32.39;31.79;100161.91;1789374;78;21606;-82
2021/07/15 10:07:49;;;;;;;8.48;3.65;;;;;;;32.57;31.52;100161.12;1825151;77;21082;-85
2021/07/15 10:10:24;;;;;;;9.33;2.80;;;;;;;32.74;33.11;100157.58;1828448;77;20993;-84
2021/07/15 10:13:16;;;;;;;10.55;2.83;;;;;;;32.93;34.13;100162.80;1826553;77;21134;-81
2021/07/15 10:15:47;;;;;;;4.95;2.72;;;;;;;33.15;34.40;100162.50;1826195;77;21448;-84
2021/07/15 10:18:45;;;;;;;17.73;9.85;;;;;;;33.39;33.33;100157.81;1821010;77;21527;-83
2021/07/15 10:21:31;;;;;;;3.95;2.67;;;;;;;33.49;33.82;100162.73;1810503;77;21077;-83
2021/07/15 10:24:35;;;;;;;12.37;2.47;;;;;;;33.63;33.02;100160.21;1797805;77;21040;-82
2021/07/15 10:27:43;;;;;;;3.92;2.40;;;;;;;33.81;33.76;100156.03;1820789;78;21015;-82
2021/07/15 10:30:29;;;;;;;6.58;3.10;;;;;;;33.95;33.77;100155.71;1810230;78;21000;-83
2021/07/15 10:33:00;;;;;;;11.55;2.52;;;;;;;34.00;32.26;100152.95;1821192;77;21066;-82
2021/07/15 10:35:34;;;;;;;3.70;2.20;;;;;;;34.00;32.72;100154.88;1812796;78;21006;-83
2021/07/15 10:38:10;;;;;;;10.70;2.55;;;;;;;34.02;32.36;100156.23;1807429;79;20912;-82
2021/07/15 10:40:41;;;;;;;6.10;2.35;;;;;;;34.18;33.49;100155.60;1799817;78;20901;-82
2021/07/15 10:43:15;;;;;;;6.20;2.30;;;;;;;34.27;32.61;100153.08;1777107;79;20996;-82
2021/07/15 10:45:51;;;;;;;11.38;2.55;;;;;;;34.39;31.25;100154.95;1780643;79;21063;-78
2021/07/15 10:48:21;;;;;;;12.25;2.33;;;;;;;34.43;32.55;100154.08;1810080;79;21443;-81
2021/07/15 10:50:53;;;;;;;8.18;2.30;;;;;;;34.49;30.93;100155.42;1803093;78;21083;-82
2021/07/15 10:53:20;;;;;;;12.82;2.50;;;;;;;34.47;31.87;100159.83;1798316;78;20985;-82
2021/07/15 10:55:48;;;;;;;8.58;2.47;;;;;;;34.58;30.37;100153.71;1802260;79;21020;-82
2021/07/15 10:58:14;;;;;;;19.77;11.03;;;;;;;34.59;31.93;100154.79;1755860;77;20964;-82
2021/07/15 11:00:51;;;;;;;8.45;3.10;;;;;;;34.69;31.75;100150.59;1746615;79;21083;-83
2021/07/15 11:03:25;;;;;;;10.32;2.60;;;;;;;34.80;31.35;100149.95;1796167;78;21472;-79
2021/07/15 11:05:58;;;;;;;19.92;5.83;;;;;;;34.95;32.60;100151.78;1764829;79;21024;-79
2021/07/15 11:08:51;;;;;;;5.60;2.35;;;;;;;35.12;31.85;100150.77;1793753;79;21032;-82
2021/07/15 11:11:34;;;;;;;7.87;2.30;;;;;;;35.27;31.33;100143.75;1794951;78;21617;-83
2021/07/15 11:14:02;;;;;;;20.72;6.03;;;;;;;35.38;30.56;100141.74;1781794;79;20945;-83
2021/07/15 11:16:50;;;;;;;10.00;3.85;;;;;;;35.42;29.65;100139.22;1799515;78;21527;-84
2021/07/15 11:20:12;;;;;;;11.97;3.75;;;;;;;35.48;28.39;100143.00;1773414;79;20984;-83
2021/07/15 11:22:51;;;;;;;7.22;3.10;;;;;;;35.52;29.37;100135.82;1795556;79;20977;-81
2021/07/15 11:25:36;;;;;;;25.00;7.30;;;;;;;35.62;28.92;100134.88;1810610;78;21491;-80
2021/07/15 11:28:16;;;;;;;6.17;2.50;;;;;;;35.71;29.47;100127.63;1797070;78;21079;-82
2021/07/15 11:30:52;;;;;;;3.45;1.98;;;;;;;35.76;28.24;100126.16;1794852;79;21843;-74
2021/07/15 11:33:27;;;;;;;8.90;2.45;;;;;;;35.73;28.45;100120.45;1776710;79;20996;-76
2021/07/15 11:36:04;;;;;;;7.05;2.27;;;;;;;35.79;28.45;100121.44;1789136;77;20948;-76
2021/07/15 11:38:42;;;;;;;6.30;2.50;;;;;;;35.87;29.01;100119.16;1808193;78;20968;-76
2021/07/15 11:41:16;;;;;;;6.30;3.02;;;;;;;35.95;28.46;100120.72;1809224;77;20912;-75